createdAt,value
2019-01-15T00:00:41.948Z,0
2019-01-15T00:01:41.957Z,0
2019-01-15T00:02:41.200Z,0
2019-01-15T00:03:42.009Z,0
2019-01-15T00:04:41.751Z,0
2019-01-15T00:05:41.507Z,0
2019-01-15T00:06:41.781Z,0
2019-01-15T00:07:41.540Z,0
2019-01-15T00:08:41.834Z,0
2019-01-15T00:09:41.822Z,0
2019-01-15T00:10:41.604Z,0
2019-01-15T00:11:41.346Z,0
2019-01-15T00:12:41.878Z,0
2019-01-15T00:13:42.428Z,0
2019-01-15T00:14:41.656Z,0
2019-01-15T00:15:41.418Z,0
2019-01-15T00:16:41.964Z,0
2019-01-15T00:17:42.485Z,0
2019-01-15T00:18:42.254Z,0
2019-01-15T00:19:41.989Z,0
2019-01-15T00:20:41.749Z,0
2019-01-15T00:21:41.783Z,0
2019-01-15T00:22:42.578Z,0
2019-01-15T00:23:42.328Z,0
2019-01-15T00:24:41.575Z,0
2019-01-15T00:25:41.857Z,0
2019-01-15T00:26:41.845Z,0
2019-01-15T00:27:42.143Z,0
2019-01-15T00:28:42.138Z,0
2019-01-15T00:29:41.920Z,0
2019-01-15T00:30:42.172Z,0
2019-01-15T00:31:42.209Z,0
2019-01-15T00:32:41.960Z,0
2019-01-15T00:33:41.967Z,0
2019-01-15T00:34:42.493Z,0
2019-01-15T00:35:42.011Z,0
2019-01-15T00:36:42.025Z,0
2019-01-15T00:37:42.308Z,0
2019-01-15T00:38:42.059Z,0
2019-01-15T00:39:42.316Z,0
2019-01-15T00:40:42.356Z,0
2019-01-15T00:41:42.371Z,0
2019-01-15T00:42:42.117Z,0
2019-01-15T00:43:42.665Z,0
2019-01-15T00:44:42.673Z,0
2019-01-15T00:45:42.188Z,0
2019-01-15T00:46:42.188Z,0
2019-01-15T00:47:42.981Z,0
2019-01-15T00:48:42.209Z,0
2019-01-15T00:49:42.737Z,0
2019-01-15T00:50:42.796Z,0
2019-01-15T00:51:42.536Z,0
2019-01-15T00:52:42.328Z,0
2019-01-15T00:53:42.559Z,0
2019-01-15T00:54:42.333Z,0
2019-01-15T00:55:42.849Z,0
2019-01-15T00:56:42.092Z,0
2019-01-15T00:57:42.872Z,0
2019-01-15T00:58:42.905Z,0
2019-01-15T00:59:42.919Z,0
2019-01-15T01:00:42.673Z,0
2019-01-15T01:01:42.422Z,0
2019-01-15T01:02:42.189Z,0
2019-01-15T01:03:42.773Z,0
2019-01-15T01:04:42.741Z,0
2019-01-15T01:05:42.746Z,0
2019-01-15T01:06:42.514Z,0
2019-01-15T01:07:42.518Z,0
2019-01-15T01:08:42.552Z,0
2019-01-15T01:09:42.824Z,0
2019-01-15T01:10:42.833Z,0
2019-01-15T01:11:42.867Z,0
2019-01-15T01:12:42.865Z,0
2019-01-15T01:13:42.382Z,0
2019-01-15T01:14:42.660Z,0
2019-01-15T01:15:42.406Z,0
2019-01-15T01:16:43.009Z,0
2019-01-15T01:17:43.222Z,0
2019-01-15T01:18:42.718Z,0
2019-01-15T01:19:42.997Z,0
2019-01-15T01:20:44.147Z,0
2019-01-15T01:21:42.756Z,0
2019-01-15T01:22:43.035Z,0
2019-01-15T01:23:43.061Z,0
2019-01-15T01:24:42.829Z,0
2019-01-15T01:25:42.837Z,0
2019-01-15T01:26:43.434Z,0
2019-01-15T01:27:43.649Z,0
2019-01-15T01:28:43.445Z,0
2019-01-15T01:29:42.645Z,0
2019-01-15T01:30:43.174Z,0
2019-01-15T01:31:42.947Z,0
2019-01-15T01:32:42.949Z,0
2019-01-15T01:33:43.486Z,0
2019-01-15T01:34:42.983Z,0
2019-01-15T01:35:42.995Z,0
2019-01-15T01:36:43.260Z,0
2019-01-15T01:37:43.557Z,0
2019-01-15T01:38:43.305Z,0
2019-01-15T01:39:43.313Z,0
2019-01-15T01:40:43.580Z,0
2019-01-15T01:41:43.352Z,0
2019-01-15T01:42:43.100Z,0
2019-01-15T01:43:43.661Z,0
2019-01-15T01:44:43.146Z,0
2019-01-15T01:45:43.415Z,0
2019-01-15T01:46:43.681Z,0
2019-01-15T01:47:42.924Z,0
2019-01-15T01:48:43.223Z,0
2019-01-15T01:49:43.242Z,0
2019-01-15T01:50:43.757Z,0
2019-01-15T01:51:43.806Z,0
2019-01-15T01:52:43.566Z,0
2019-01-15T01:53:43.804Z,0
2019-01-15T01:54:43.314Z,0
2019-01-15T01:55:43.827Z,0
2019-01-15T01:56:43.643Z,0
2019-01-15T01:57:43.872Z,0
2019-01-15T01:58:43.627Z,0
2019-01-15T01:59:43.397Z,0
2019-01-15T02:00:43.688Z,0
2019-01-15T02:01:43.959Z,0
2019-01-15T02:02:43.837Z,0
2019-01-15T02:03:43.457Z,0
2019-01-15T02:04:43.768Z,0
2019-01-15T02:05:44.021Z,0
2019-01-15T02:06:43.791Z,0
2019-01-15T02:07:43.532Z,0
2019-01-15T02:08:43.530Z,0
2019-01-15T02:09:43.330Z,0
2019-01-15T02:10:43.831Z,0
2019-01-15T02:11:44.111Z,0
2019-01-15T02:12:46.217Z,0
2019-01-15T02:13:44.769Z,0
2019-01-15T02:14:43.646Z,0
2019-01-15T02:15:44.146Z,0
2019-01-15T02:16:43.954Z,0
2019-01-15T02:17:44.000Z,0
2019-01-15T02:18:43.450Z,0
2019-01-15T02:19:43.964Z,0
2019-01-15T02:20:43.735Z,0
2019-01-15T02:21:44.009Z,0
2019-01-15T02:22:43.747Z,0
2019-01-15T02:23:44.058Z,0
2019-01-15T02:24:44.077Z,0
2019-01-15T02:25:44.068Z,0
2019-01-15T02:26:43.828Z,0
2019-01-15T02:27:43.839Z,0
2019-01-15T02:28:44.478Z,0
2019-01-15T02:29:43.878Z,0
2019-01-15T02:30:44.171Z,0
2019-01-15T02:31:43.650Z,0
2019-01-15T02:32:43.674Z,0
2019-01-15T02:33:43.708Z,0
2019-01-15T02:34:44.482Z,0
2019-01-15T02:35:43.722Z,0
2019-01-15T02:36:43.738Z,0
2019-01-15T02:37:44.560Z,0
2019-01-15T02:38:44.341Z,0
2019-01-15T02:39:44.048Z,0
2019-01-15T02:40:43.811Z,0
2019-01-15T02:41:44.351Z,0
2019-01-15T02:42:53.634Z,0
2019-01-15T02:43:44.618Z,0
2019-01-15T02:44:43.885Z,0
2019-01-15T02:45:44.716Z,0
2019-01-15T02:46:44.693Z,0
2019-01-15T02:47:44.422Z,0
2019-01-15T02:48:44.262Z,0
2019-01-15T02:49:44.449Z,0
2019-01-15T02:50:44.739Z,0
2019-01-15T02:51:44.525Z,0
2019-01-15T02:52:44.780Z,0
2019-01-15T02:53:44.808Z,0
2019-01-15T02:54:44.280Z,0
2019-01-15T02:55:44.563Z,0
2019-01-15T02:56:44.571Z,0
2019-01-15T02:57:44.616Z,0
2019-01-15T02:58:44.631Z,0
2019-01-15T02:59:44.650Z,0
2019-01-15T03:00:44.650Z,0
2019-01-15T03:01:44.217Z,0
2019-01-15T03:02:44.458Z,0
2019-01-15T03:03:44.195Z,0
2019-01-15T03:04:44.966Z,0
2019-01-15T03:05:44.474Z,0
2019-01-15T03:06:45.026Z,0
2019-01-15T03:07:44.254Z,0
2019-01-15T03:08:44.531Z,0
2019-01-15T03:09:44.534Z,0
2019-01-15T03:10:45.079Z,0
2019-01-15T03:11:44.573Z,0
2019-01-15T03:12:44.586Z,0
2019-01-15T03:13:44.345Z,0
2019-01-15T03:14:44.381Z,0
2019-01-15T03:15:44.872Z,0
2019-01-15T03:16:44.656Z,0
2019-01-15T03:17:44.428Z,0
2019-01-15T03:18:44.676Z,0
2019-01-15T03:19:44.702Z,0
2019-01-15T03:20:44.976Z,0
2019-01-15T03:21:45.009Z,0
2019-01-15T03:22:45.005Z,0
2019-01-15T03:23:45.322Z,0
2019-01-15T03:24:45.570Z,0
2019-01-15T03:25:44.804Z,0
2019-01-15T03:26:44.569Z,0
2019-01-15T03:27:44.812Z,0
2019-01-15T03:28:44.597Z,0
2019-01-15T03:29:45.379Z,0
2019-01-15T03:30:45.201Z,0
2019-01-15T03:31:45.199Z,0
2019-01-15T03:32:45.715Z,0
2019-01-15T03:33:44.940Z,0
2019-01-15T03:34:45.246Z,0
2019-01-15T03:35:45.217Z,0
2019-01-15T03:36:47.182Z,0
2019-01-15T03:37:44.976Z,0
2019-01-15T03:38:45.779Z,0
2019-01-15T03:39:44.758Z,0
2019-01-15T03:40:45.072Z,0
2019-01-15T03:41:45.066Z,0
2019-01-15T03:42:45.075Z,0
2019-01-15T03:43:45.368Z,0
2019-01-15T03:44:45.121Z,0
2019-01-15T03:45:45.384Z,0
2019-01-15T03:46:45.204Z,0
2019-01-15T03:47:45.169Z,0
2019-01-15T03:48:44.927Z,0
2019-01-15T03:49:45.722Z,0
2019-01-15T03:50:45.489Z,0
2019-01-15T03:51:45.488Z,0
2019-01-15T03:52:45.015Z,0
2019-01-15T03:53:44.993Z,0
2019-01-15T03:54:45.023Z,0
2019-01-15T03:55:45.271Z,0
2019-01-15T03:56:45.298Z,0
2019-01-15T03:57:45.327Z,0
2019-01-15T03:58:45.605Z,0
2019-01-15T03:59:45.888Z,0
2019-01-15T04:00:45.378Z,0
2019-01-15T04:01:45.382Z,0
2019-01-15T04:02:45.420Z,0
2019-01-15T04:03:45.678Z,0
2019-01-15T04:04:45.700Z,0
2019-01-15T04:05:45.742Z,0
2019-01-15T04:06:45.742Z,0
2019-01-15T04:07:45.508Z,0
2019-01-15T04:08:45.747Z,0
2019-01-15T04:09:45.764Z,0
2019-01-15T04:10:45.518Z,0
2019-01-15T04:11:45.543Z,0
2019-01-15T04:12:45.548Z,0
2019-01-15T04:13:45.586Z,0
2019-01-15T04:14:45.331Z,0
2019-01-15T04:15:45.592Z,0
2019-01-15T04:16:46.154Z,0
2019-01-15T04:17:45.671Z,0
2019-01-15T04:18:45.930Z,0
2019-01-15T04:19:45.661Z,0
2019-01-15T04:20:46.210Z,0
2019-01-15T04:21:45.977Z,0
2019-01-15T04:22:46.000Z,0
2019-01-15T04:23:45.789Z,0
2019-01-15T04:24:45.778Z,0
2019-01-15T04:25:46.466Z,0
2019-01-15T04:26:45.794Z,0
2019-01-15T04:27:46.073Z,0
2019-01-15T04:28:46.351Z,0
2019-01-15T04:29:45.839Z,0
2019-01-15T04:30:46.404Z,0
2019-01-15T04:31:46.409Z,0
2019-01-15T04:32:46.416Z,0
2019-01-15T04:33:45.891Z,0
2019-01-15T04:34:46.440Z,0
2019-01-15T04:35:46.187Z,0
2019-01-15T04:36:46.474Z,0
2019-01-15T04:37:46.495Z,0
2019-01-15T04:38:45.988Z,0
2019-01-15T04:39:45.998Z,0
2019-01-15T04:40:46.519Z,0
2019-01-15T04:41:46.297Z,0
2019-01-15T04:42:46.562Z,0
2019-01-15T04:43:46.328Z,0
2019-01-15T04:44:46.085Z,0
2019-01-15T04:45:46.348Z,0
2019-01-15T04:46:46.361Z,0
2019-01-15T04:47:46.739Z,0
2019-01-15T04:48:46.154Z,0
2019-01-15T04:49:46.420Z,0
2019-01-15T04:50:45.922Z,0
2019-01-15T04:51:46.698Z,0
2019-01-15T04:52:46.742Z,0
2019-01-15T04:53:46.730Z,0
2019-01-15T04:54:46.761Z,0
2019-01-15T04:55:46.529Z,0
2019-01-15T04:56:46.537Z,0
2019-01-15T04:57:46.329Z,0
2019-01-15T04:58:46.586Z,0
2019-01-15T04:59:46.372Z,0
2019-01-15T05:00:46.360Z,0
2019-01-15T05:01:46.874Z,0
2019-01-15T05:02:46.621Z,0
2019-01-15T05:03:46.900Z,0
2019-01-15T05:04:46.152Z,0
2019-01-15T05:05:46.949Z,0
2019-01-15T05:06:46.692Z,0
2019-01-15T05:07:46.973Z,0
2019-01-15T05:08:47.010Z,0
2019-01-15T05:09:47.075Z,0
2019-01-15T05:10:46.617Z,0
2019-01-15T05:11:46.545Z,0
2019-01-15T05:12:46.796Z,0
2019-01-15T05:13:46.569Z,0
2019-01-15T05:14:46.829Z,0
2019-01-15T05:15:46.839Z,0
2019-01-15T05:16:46.601Z,0
2019-01-15T05:17:47.150Z,0
2019-01-15T05:18:47.156Z,0
2019-01-15T05:19:46.388Z,0
2019-01-15T05:20:46.411Z,0
2019-01-15T05:21:46.696Z,0
2019-01-15T05:22:46.441Z,0
2019-01-15T05:23:46.984Z,0
2019-01-15T05:24:47.014Z,0
2019-01-15T05:25:46.522Z,0
2019-01-15T05:26:47.041Z,0
2019-01-15T05:27:46.806Z,0
2019-01-15T05:28:47.068Z,0
2019-01-15T05:29:47.090Z,0
2019-01-15T05:30:47.359Z,0
2019-01-15T05:31:46.574Z,0
2019-01-15T05:32:46.625Z,0
2019-01-15T05:33:47.208Z,0
2019-01-15T05:34:47.163Z,0
2019-01-15T05:35:46.915Z,0
2019-01-15T05:36:47.172Z,0
2019-01-15T05:37:46.931Z,0
2019-01-15T05:38:46.959Z,0
2019-01-15T05:39:47.259Z,0
2019-01-15T05:40:47.281Z,0
2019-01-15T05:41:46.748Z,0
2019-01-15T05:42:47.283Z,0
2019-01-15T05:43:47.570Z,0
2019-01-15T05:44:47.597Z,0
2019-01-15T05:45:47.352Z,0
2019-01-15T05:46:47.350Z,0
2019-01-15T05:47:46.855Z,0
2019-01-15T05:48:47.377Z,0
2019-01-15T05:49:47.385Z,0
2019-01-15T05:50:47.673Z,0
2019-01-15T05:51:47.713Z,0
2019-01-15T05:52:47.184Z,0
2019-01-15T05:53:47.455Z,0
2019-01-15T05:54:47.480Z,0
2019-01-15T05:55:47.505Z,0
2019-01-15T05:56:47.768Z,0
2019-01-15T05:57:47.783Z,0
2019-01-15T05:58:47.544Z,0
2019-01-15T05:59:47.295Z,0
2019-01-15T06:00:47.838Z,0
2019-01-15T06:01:47.604Z,0
2019-01-15T06:02:47.349Z,0
2019-01-15T06:03:47.378Z,0
2019-01-15T06:04:47.627Z,0
2019-01-15T06:05:47.404Z,0
2019-01-15T06:06:47.409Z,0
2019-01-15T06:07:47.671Z,0
2019-01-15T06:08:47.190Z,0
2019-01-15T06:09:47.511Z,0
2019-01-15T06:10:47.743Z,0
2019-01-15T06:11:48.292Z,0
2019-01-15T06:12:47.510Z,0
2019-01-15T06:13:51.856Z,0
2019-01-15T06:14:47.538Z,0
2019-01-15T06:15:47.555Z,0
2019-01-15T06:16:47.569Z,0
2019-01-15T06:17:47.833Z,0
2019-01-15T06:18:47.861Z,0
2019-01-15T06:19:48.158Z,0
2019-01-15T06:20:47.638Z,0
2019-01-15T06:21:48.151Z,0
2019-01-15T06:22:47.412Z,0
2019-01-15T06:23:47.938Z,0
2019-01-15T06:24:47.695Z,0
2019-01-15T06:25:47.721Z,0
2019-01-15T06:26:47.458Z,0
2019-01-15T06:27:48.011Z,0
2019-01-15T06:28:48.288Z,0
2019-01-15T06:29:48.026Z,0
2019-01-15T06:30:48.047Z,0
2019-01-15T06:31:47.551Z,0
2019-01-15T06:32:47.576Z,0
2019-01-15T06:33:48.118Z,0
2019-01-15T06:34:48.369Z,0
2019-01-15T06:35:48.417Z,0
2019-01-15T06:36:48.433Z,0
2019-01-15T06:37:48.446Z,0
2019-01-15T06:38:47.935Z,0
2019-01-15T06:39:47.696Z,0
2019-01-15T06:40:47.697Z,0
2019-01-15T06:41:48.244Z,0
2019-01-15T06:42:48.530Z,0
2019-01-15T06:43:54.869Z,0
2019-01-15T06:44:48.535Z,0
2019-01-15T06:45:47.776Z,0
2019-01-15T06:46:48.316Z,0
2019-01-15T06:47:48.387Z,0
2019-01-15T06:48:48.336Z,0
2019-01-15T06:49:48.391Z,0
2019-01-15T06:50:48.376Z,0
2019-01-15T06:51:48.658Z,0
2019-01-15T06:52:48.408Z,0
2019-01-15T06:53:47.899Z,0
2019-01-15T06:54:48.177Z,0
2019-01-15T06:55:48.466Z,0
2019-01-15T06:56:48.472Z,0
2019-01-15T06:57:48.791Z,0
2019-01-15T06:58:48.510Z,0
2019-01-15T06:59:48.513Z,0
2019-01-15T07:00:48.806Z,0
2019-01-15T07:01:48.554Z,0
2019-01-15T07:02:48.829Z,0
2019-01-15T07:03:48.642Z,0
2019-01-15T07:04:53.359Z,0
2019-01-15T07:05:48.981Z,0
2019-01-15T07:06:48.370Z,0
2019-01-15T07:07:48.400Z,0
2019-01-15T07:08:48.400Z,0
2019-01-15T07:09:48.673Z,0
2019-01-15T07:10:48.956Z,0
2019-01-15T07:11:48.980Z,0
2019-01-15T07:12:48.459Z,0
2019-01-15T07:13:56.846Z,0
2019-01-15T07:14:48.522Z,0
2019-01-15T07:15:48.251Z,0
2019-01-15T07:16:48.551Z,0
2019-01-15T07:17:48.547Z,0
2019-01-15T07:18:48.823Z,0
2019-01-15T07:19:48.580Z,0
2019-01-15T07:20:48.598Z,0
2019-01-15T07:21:48.608Z,0
2019-01-15T07:22:48.624Z,0
2019-01-15T07:23:48.637Z,0
2019-01-15T07:24:48.923Z,0
2019-01-15T07:25:49.001Z,0
2019-01-15T07:26:49.218Z,0
2019-01-15T07:27:48.969Z,0
2019-01-15T07:28:48.505Z,0
2019-01-15T07:29:49.016Z,0
2019-01-15T07:30:49.018Z,0
2019-01-15T07:31:49.030Z,0
2019-01-15T07:32:48.790Z,0
2019-01-15T07:33:49.068Z,0
2019-01-15T07:34:48.839Z,0
2019-01-15T07:35:49.093Z,0
2019-01-15T07:36:49.127Z,0
2019-01-15T07:37:49.128Z,0
2019-01-15T07:38:49.407Z,0
2019-01-15T07:39:49.432Z,0
2019-01-15T07:40:48.911Z,0
2019-01-15T07:41:48.690Z,0
2019-01-15T07:42:49.216Z,0
2019-01-15T07:43:49.228Z,0
2019-01-15T07:44:49.501Z,0
2019-01-15T07:45:49.011Z,0
2019-01-15T07:46:48.764Z,0
2019-01-15T07:47:49.544Z,0
2019-01-15T07:48:49.578Z,0
2019-01-15T07:49:49.081Z,0
2019-01-15T07:50:49.548Z,0
2019-01-15T07:51:49.088Z,0
2019-01-15T07:52:49.886Z,0
2019-01-15T07:53:48.862Z,0
2019-01-15T07:54:49.135Z,0
2019-01-15T07:55:49.418Z,0
2019-01-15T07:56:49.687Z,0
2019-01-15T07:57:49.973Z,0
2019-01-15T07:58:49.722Z,0
2019-01-15T07:59:49.224Z,0
2019-01-15T08:00:49.505Z,0
2019-01-15T08:01:49.537Z,0
2019-01-15T08:02:49.573Z,0
2019-01-15T08:03:49.290Z,0
2019-01-15T08:04:50.114Z,0
2019-01-15T08:05:49.936Z,0
2019-01-15T08:06:49.600Z,0
2019-01-15T08:07:49.630Z,0
2019-01-15T08:08:49.658Z,0
2019-01-15T08:09:49.388Z,0
2019-01-15T08:10:56.878Z,0
2019-01-15T08:11:49.691Z,0
2019-01-15T08:12:49.707Z,0
2019-01-15T08:13:49.707Z,0
2019-01-15T08:14:49.476Z,0
2019-01-15T08:15:49.490Z,0
2019-01-15T08:16:49.238Z,0
2019-01-15T08:17:50.050Z,0
2019-01-15T08:18:49.799Z,5
2019-01-15T08:19:49.295Z,5
2019-01-15T08:20:50.163Z,0
2019-01-15T08:21:49.610Z,0
2019-01-15T08:22:49.617Z,0
2019-01-15T08:23:49.626Z,0
2019-01-15T08:24:49.370Z,0
2019-01-15T08:25:49.913Z,0
2019-01-15T08:26:49.933Z,0
2019-01-15T08:27:49.942Z,5
2019-01-15T08:28:49.708Z,0
2019-01-15T08:29:50.247Z,0
2019-01-15T08:30:49.985Z,0
2019-01-15T08:31:49.737Z,0
2019-01-15T08:32:49.764Z,0
2019-01-15T08:33:49.796Z,0
2019-01-15T08:34:49.782Z,5
2019-01-15T08:35:49.850Z,5
2019-01-15T08:36:50.141Z,5
2019-01-15T08:37:50.366Z,5
2019-01-15T08:38:50.120Z,5
2019-01-15T08:39:49.881Z,5
2019-01-15T08:40:49.644Z,5
2019-01-15T08:41:49.651Z,5
2019-01-15T08:42:49.927Z,5
2019-01-15T08:43:49.674Z,5
2019-01-15T08:44:50.226Z,5
2019-01-15T08:45:49.988Z,5
2019-01-15T08:46:50.272Z,5
2019-01-15T08:47:52.408Z,10
2019-01-15T08:48:50.082Z,10
2019-01-15T08:49:50.287Z,15
2019-01-15T08:50:50.303Z,10
2019-01-15T08:51:50.079Z,10
2019-01-15T08:52:50.362Z,10
2019-01-15T08:53:50.622Z,10
2019-01-15T08:54:50.369Z,10
2019-01-15T08:55:50.658Z,10
2019-01-15T08:56:50.156Z,10
2019-01-15T08:57:50.168Z,10
2019-01-15T08:58:50.441Z,10
2019-01-15T08:59:49.932Z,10
2019-01-15T09:00:50.236Z,10
2019-01-15T09:01:50.231Z,5
2019-01-15T09:02:49.980Z,5
2019-01-15T09:03:50.513Z,5
2019-01-15T09:04:50.292Z,10
2019-01-15T09:05:50.826Z,10
2019-01-15T09:06:50.331Z,10
2019-01-15T09:07:50.341Z,10
2019-01-15T09:08:50.613Z,10
2019-01-15T09:09:50.955Z,5
2019-01-15T09:10:50.655Z,5
2019-01-15T09:11:50.669Z,5
2019-01-15T09:12:50.430Z,5
2019-01-15T09:13:50.678Z,5
2019-01-15T09:14:50.457Z,10
2019-01-15T09:15:50.727Z,10
2019-01-15T09:16:51.122Z,10
2019-01-15T09:17:50.500Z,15
2019-01-15T09:18:50.610Z,10
2019-01-15T09:19:51.048Z,5
2019-01-15T09:20:50.788Z,5
2019-01-15T09:21:50.994Z,10
2019-01-15T09:22:50.341Z,10
2019-01-15T09:23:50.334Z,10
2019-01-15T09:24:50.460Z,10
2019-01-15T09:25:51.153Z,5
2019-01-15T09:26:50.655Z,5
2019-01-15T09:27:51.073Z,10
2019-01-15T09:28:50.682Z,10
2019-01-15T09:29:50.990Z,10
2019-01-15T09:30:50.445Z,10
2019-01-15T09:31:50.728Z,10
2019-01-15T09:32:50.794Z,5
2019-01-15T09:33:50.774Z,10
2019-01-15T09:34:51.030Z,15
2019-01-15T09:35:51.780Z,10
2019-01-15T09:36:50.802Z,10
2019-01-15T09:37:51.087Z,15
2019-01-15T09:38:50.589Z,10
2019-01-15T09:39:51.364Z,10
2019-01-15T09:40:51.659Z,10
2019-01-15T09:41:51.141Z,15
2019-01-15T09:42:51.435Z,10
2019-01-15T09:43:51.434Z,15
2019-01-15T09:44:50.930Z,15
2019-01-15T09:45:50.699Z,10
2019-01-15T09:46:50.714Z,10
2019-01-15T09:47:51.508Z,15
2019-01-15T09:48:50.997Z,10
2019-01-15T09:49:51.029Z,15
2019-01-15T09:50:51.814Z,15
2019-01-15T09:51:51.306Z,15
2019-01-15T09:52:51.084Z,15
2019-01-15T09:53:50.823Z,15
2019-01-15T09:54:51.380Z,20
2019-01-15T09:55:51.661Z,20
2019-01-15T09:56:50.891Z,15
2019-01-15T09:57:51.178Z,15
2019-01-15T09:58:51.436Z,15
2019-01-15T09:59:50.936Z,15
2019-01-15T10:00:51.204Z,20
2019-01-15T10:01:51.517Z,20
2019-01-15T10:02:51.523Z,15
2019-01-15T10:03:52.027Z,20
2019-01-15T10:04:51.275Z,20
2019-01-15T10:05:51.036Z,20
2019-01-15T10:06:51.578Z,20
2019-01-15T10:07:51.323Z,15
2019-01-15T10:08:51.340Z,20
2019-01-15T10:09:51.610Z,20
2019-01-15T10:10:51.618Z,20
2019-01-15T10:11:51.897Z,20
2019-01-15T10:12:51.658Z,20
2019-01-15T10:13:51.410Z,20
2019-01-15T10:14:51.434Z,20
2019-01-15T10:15:51.449Z,20
2019-01-15T10:16:51.455Z,20
2019-01-15T10:17:51.234Z,20
2019-01-15T10:18:51.754Z,20
2019-01-15T10:19:52.276Z,20
2019-01-15T10:20:52.044Z,20
2019-01-15T10:21:51.564Z,20
2019-01-15T10:22:51.827Z,20
2019-01-15T10:23:51.832Z,15
2019-01-15T10:24:51.656Z,15
2019-01-15T10:25:51.603Z,20
2019-01-15T10:26:51.905Z,15
2019-01-15T10:27:51.901Z,20
2019-01-15T10:28:51.931Z,20
2019-01-15T10:29:58.963Z,15
2019-01-15T10:30:51.440Z,20
2019-01-15T10:31:52.249Z,20
2019-01-15T10:32:52.246Z,20
2019-01-15T10:33:52.019Z,15
2019-01-15T10:34:52.017Z,15
2019-01-15T10:35:51.778Z,15
2019-01-15T10:36:51.524Z,15
2019-01-15T10:37:52.328Z,15
2019-01-15T10:38:51.568Z,15
2019-01-15T10:39:52.101Z,10
2019-01-15T10:40:51.875Z,15
2019-01-15T10:41:52.132Z,15
2019-01-15T10:42:51.887Z,15
2019-01-15T10:43:52.151Z,15
2019-01-15T10:44:58.073Z,15
2019-01-15T10:45:51.975Z,15
2019-01-15T10:46:51.969Z,10
2019-01-15T10:47:52.498Z,10
2019-01-15T10:48:52.776Z,15
2019-01-15T10:49:52.275Z,10
2019-01-15T10:50:52.027Z,15
2019-01-15T10:51:51.789Z,20
2019-01-15T10:52:52.310Z,20
2019-01-15T10:53:52.589Z,15
2019-01-15T10:54:51.826Z,15
2019-01-15T10:55:51.847Z,15
2019-01-15T10:56:52.121Z,15
2019-01-15T10:57:52.655Z,15
2019-01-15T10:58:52.414Z,15
2019-01-15T10:59:52.959Z,20
2019-01-15T11:00:52.466Z,20
2019-01-15T11:01:52.482Z,15
2019-01-15T11:02:52.285Z,15
2019-01-15T11:03:51.988Z,15
2019-01-15T11:04:52.512Z,15
2019-01-15T11:05:52.534Z,15
2019-01-15T11:06:52.540Z,15
2019-01-15T11:07:53.102Z,15
2019-01-15T11:08:52.326Z,15
2019-01-15T11:09:53.130Z,15
2019-01-15T11:10:52.669Z,15
2019-01-15T11:11:52.628Z,15
2019-01-15T11:12:52.648Z,15
2019-01-15T11:13:52.445Z,15
2019-01-15T11:14:58.579Z,10
2019-01-15T11:15:52.787Z,15
2019-01-15T11:16:52.196Z,15
2019-01-15T11:17:52.722Z,15
2019-01-15T11:18:52.232Z,15
2019-01-15T11:19:52.502Z,15
2019-01-15T11:20:53.046Z,15
2019-01-15T11:21:52.803Z,15
2019-01-15T11:22:53.072Z,15
2019-01-15T11:23:52.574Z,10
2019-01-15T11:24:52.588Z,10
2019-01-15T11:25:52.867Z,10
2019-01-15T11:26:52.676Z,15
2019-01-15T11:27:52.904Z,10
2019-01-15T11:28:52.388Z,10
2019-01-15T11:29:53.195Z,10
2019-01-15T11:30:53.215Z,10
2019-01-15T11:31:52.962Z,5
2019-01-15T11:32:52.995Z,5
2019-01-15T11:33:52.740Z,10
2019-01-15T11:34:53.028Z,10
2019-01-15T11:35:52.784Z,10
2019-01-15T11:36:52.797Z,10
2019-01-15T11:37:53.062Z,10
2019-01-15T11:38:53.090Z,10
2019-01-15T11:39:53.105Z,10
2019-01-15T11:40:53.382Z,15
2019-01-15T11:41:52.892Z,10
2019-01-15T11:42:53.176Z,10
2019-01-15T11:43:53.164Z,15
2019-01-15T11:44:52.916Z,15
2019-01-15T11:45:53.226Z,15
2019-01-15T11:46:53.218Z,15
2019-01-15T11:47:53.499Z,15
2019-01-15T11:48:53.241Z,15
2019-01-15T11:49:53.266Z,15
2019-01-15T11:50:53.291Z,15
2019-01-15T11:51:53.097Z,10
2019-01-15T11:52:53.321Z,10
2019-01-15T11:53:53.338Z,10
2019-01-15T11:54:53.100Z,10
2019-01-15T11:55:53.368Z,10
2019-01-15T11:56:53.392Z,15
2019-01-15T11:57:53.158Z,10
2019-01-15T11:58:53.938Z,10
2019-01-15T11:59:53.424Z,10
2019-01-15T12:00:52.945Z,10
2019-01-15T12:01:53.473Z,10
2019-01-15T12:02:53.227Z,15
2019-01-15T12:03:53.487Z,10
2019-01-15T12:04:53.515Z,10
2019-01-15T12:05:53.276Z,10
2019-01-15T12:06:53.087Z,10
2019-01-15T12:07:53.570Z,10
2019-01-15T12:08:53.333Z,10
2019-01-15T12:09:53.615Z,15
2019-01-15T12:10:53.362Z,15
2019-01-15T12:11:53.627Z,15
2019-01-15T12:12:53.138Z,20
2019-01-15T12:13:53.668Z,15
2019-01-15T12:14:53.426Z,15
2019-01-15T12:15:53.724Z,15
2019-01-15T12:16:53.210Z,15
2019-01-15T12:17:53.752Z,15
2019-01-15T12:18:53.757Z,10
2019-01-15T12:19:53.251Z,10
2019-01-15T12:20:53.796Z,15
2019-01-15T12:21:53.808Z,15
2019-01-15T12:22:54.070Z,15
2019-01-15T12:23:53.315Z,15
2019-01-15T12:24:53.840Z,15
2019-01-15T12:25:53.613Z,15
2019-01-15T12:26:53.902Z,20
2019-01-15T12:27:53.646Z,25
2019-01-15T12:28:53.926Z,20
2019-01-15T12:29:53.968Z,20
2019-01-15T12:30:54.219Z,20
2019-01-15T12:31:54.237Z,20
2019-01-15T12:32:54.244Z,20
2019-01-15T12:33:54.007Z,20
2019-01-15T12:34:53.782Z,20
2019-01-15T12:35:54.042Z,20
2019-01-15T12:36:54.049Z,20
2019-01-15T12:37:53.832Z,20
2019-01-15T12:38:54.345Z,20
2019-01-15T12:39:53.870Z,25
2019-01-15T12:40:53.888Z,15
2019-01-15T12:41:54.148Z,20
2019-01-15T12:42:53.634Z,20
2019-01-15T12:43:54.179Z,20
2019-01-15T12:44:53.945Z,15
2019-01-15T12:45:53.944Z,15
2019-01-15T12:46:53.702Z,15
2019-01-15T12:47:53.772Z,20
2019-01-15T12:48:54.002Z,20
2019-01-15T12:49:54.066Z,25
2019-01-15T12:50:54.031Z,15
2019-01-15T12:51:54.381Z,15
2019-01-15T12:52:54.114Z,30
2019-01-15T12:53:54.597Z,25
2019-01-15T12:54:54.378Z,25
2019-01-15T12:55:54.914Z,25
2019-01-15T12:56:54.652Z,25
2019-01-15T12:57:54.425Z,20
2019-01-15T12:58:54.700Z,20
2019-01-15T12:59:54.466Z,15
2019-01-15T13:00:54.211Z,20
2019-01-15T13:01:54.222Z,25
2019-01-15T13:02:54.504Z,35
2019-01-15T13:03:54.512Z,25
2019-01-15T13:04:55.109Z,20
2019-01-15T13:05:54.810Z,20
2019-01-15T13:06:54.370Z,25
2019-01-15T13:07:54.598Z,20
2019-01-15T13:08:54.619Z,25
2019-01-15T13:09:54.623Z,25
2019-01-15T13:10:54.887Z,20
2019-01-15T13:11:55.177Z,15
2019-01-15T13:12:54.939Z,15
2019-01-15T13:13:54.421Z,20
2019-01-15T13:14:54.957Z,15
2019-01-15T13:15:55.993Z,15
2019-01-15T13:16:54.475Z,15
2019-01-15T13:17:54.764Z,20
2019-01-15T13:18:54.757Z,15
2019-01-15T13:19:54.785Z,20
2019-01-15T13:20:54.540Z,15
2019-01-15T13:21:54.571Z,15
2019-01-15T13:22:54.839Z,15
2019-01-15T13:23:54.863Z,15
2019-01-15T13:24:54.598Z,15
2019-01-15T13:25:54.634Z,10
2019-01-15T13:26:55.148Z,10
2019-01-15T13:27:54.400Z,15
2019-01-15T13:28:54.943Z,15
2019-01-15T13:29:54.699Z,10
2019-01-15T13:30:54.966Z,10
2019-01-15T13:31:55.249Z,10
2019-01-15T13:32:55.304Z,5
2019-01-15T13:33:54.771Z,10
2019-01-15T13:34:55.560Z,5
2019-01-15T13:35:55.069Z,5
2019-01-15T13:36:55.333Z,10
2019-01-15T13:37:54.854Z,5
2019-01-15T13:38:54.978Z,5
2019-01-15T13:39:55.143Z,5
2019-01-15T13:40:54.631Z,5
2019-01-15T13:41:54.643Z,5
2019-01-15T13:42:55.178Z,5
2019-01-15T13:43:55.187Z,5
2019-01-15T13:44:54.957Z,10
2019-01-15T13:46:00.667Z,10
2019-01-15T13:46:55.234Z,10
2019-01-15T13:47:55.307Z,10
2019-01-15T13:48:55.010Z,10
2019-01-15T13:49:55.043Z,10
2019-01-15T13:50:55.042Z,15
2019-01-15T13:51:55.334Z,10
2019-01-15T13:52:55.396Z,10
2019-01-15T13:53:55.366Z,10
2019-01-15T13:54:55.116Z,10
2019-01-15T13:55:55.198Z,10
2019-01-15T13:56:55.163Z,10
2019-01-15T13:57:55.182Z,10
2019-01-15T13:58:55.183Z,10
2019-01-15T13:59:55.460Z,10
2019-01-15T14:00:56.184Z,15
2019-01-15T14:01:55.499Z,15
2019-01-15T14:02:55.262Z,10
2019-01-15T14:03:55.017Z,10
2019-01-15T14:04:55.550Z,10
2019-01-15T14:05:56.366Z,5
2019-01-15T14:06:55.315Z,5
2019-01-15T14:07:55.909Z,5
2019-01-15T14:08:55.356Z,5
2019-01-15T14:09:55.389Z,10
2019-01-15T14:10:55.650Z,5
2019-01-15T14:11:55.403Z,5
2019-01-15T14:12:55.211Z,5
2019-01-15T14:13:55.964Z,5
2019-01-15T14:14:55.973Z,5
2019-01-15T14:15:58.286Z,5
2019-01-15T14:16:55.493Z,5
2019-01-15T14:17:56.269Z,5
2019-01-15T14:18:55.789Z,5
2019-01-15T14:19:55.531Z,5
2019-01-15T14:20:55.318Z,5
2019-01-15T14:21:55.852Z,5
2019-01-15T14:22:55.602Z,5
2019-01-15T14:23:55.623Z,10
2019-01-15T14:25:02.685Z,5
2019-01-15T14:25:55.896Z,5
2019-01-15T14:26:55.920Z,5
2019-01-15T14:27:55.741Z,5
2019-01-15T14:28:55.689Z,5
2019-01-15T14:29:55.463Z,5
2019-01-15T14:30:55.726Z,5
2019-01-15T14:31:56.277Z,5
2019-01-15T14:32:55.933Z,5
2019-01-15T14:33:55.798Z,5
2019-01-15T14:34:56.058Z,5
2019-01-15T14:35:56.355Z,5
2019-01-15T14:36:56.150Z,5